createdAt,value
2018-05-10T00:01:12.794Z,100070.61
2018-05-10T00:03:40.280Z,100069.36
2018-05-10T00:06:07.762Z,100067.70
2018-05-10T00:08:35.268Z,100071.70
2018-05-10T00:11:02.770Z,100063.59
2018-05-10T00:13:30.281Z,100073.36
2018-05-10T00:15:57.777Z,100069.44
2018-05-10T00:18:25.332Z,100061.28
2018-05-10T00:20:52.764Z,100064.61
2018-05-10T00:23:20.246Z,100062.09
2018-05-10T00:25:47.765Z,100058.63
2018-05-10T00:28:15.257Z,100060.35
2018-05-10T00:30:42.784Z,100062.25
2018-05-10T00:33:10.247Z,100053.38
2018-05-10T00:35:37.747Z,100052.08
2018-05-10T00:38:05.293Z,100050.63
2018-05-10T00:40:32.783Z,100050.30
2018-05-10T00:43:00.255Z,100049.94
2018-05-10T00:45:27.754Z,100052.53
2018-05-10T00:47:55.285Z,100047.94
2018-05-10T00:50:22.754Z,100052.69
2018-05-10T00:52:50.241Z,100053.14
2018-05-10T00:55:17.740Z,100046.60
2018-05-10T00:57:45.252Z,100048.22
2018-05-10T01:00:12.707Z,100050.80
2018-05-10T01:02:40.203Z,100052.30
2018-05-10T01:05:07.695Z,100050.39
2018-05-10T01:07:35.307Z,100046.40
2018-05-10T01:10:02.792Z,100047.69
2018-05-10T01:12:30.324Z,100047.86
2018-05-10T01:14:57.802Z,100046.68
2018-05-10T01:17:25.280Z,100037.08
2018-05-10T01:19:52.793Z,100042.65
2018-05-10T01:22:20.267Z,100038.70
2018-05-10T01:24:47.765Z,100038.45
2018-05-10T01:27:15.273Z,100039.25
2018-05-10T01:29:42.772Z,100037.00
2018-05-10T01:32:10.328Z,100030.26
2018-05-10T01:34:37.794Z,100033.09
2018-05-10T01:37:05.384Z,100035.70
2018-05-10T01:39:32.871Z,100037.88
2018-05-10T01:42:00.349Z,100034.89
2018-05-10T01:44:27.876Z,100041.75
2018-05-10T01:46:55.409Z,100035.83
2018-05-10T01:49:22.962Z,100037.88
2018-05-10T01:51:50.423Z,100039.06
2018-05-10T01:54:17.920Z,100037.56
2018-05-10T01:56:45.429Z,100038.77
2018-05-10T01:59:12.883Z,100038.05
2018-05-10T02:01:40.440Z,100044.30
2018-05-10T02:04:07.926Z,100045.03
2018-05-10T02:06:35.413Z,100047.41
2018-05-10T02:09:02.913Z,100061.41
2018-05-10T02:11:30.426Z,100059.59
2018-05-10T02:13:57.929Z,100064.88
2018-05-10T02:16:25.415Z,100049.22
2018-05-10T02:18:52.916Z,100046.68
2018-05-10T02:21:20.383Z,100050.83
2018-05-10T02:23:47.904Z,100048.74
2018-05-10T02:26:15.466Z,100050.39
2018-05-10T02:28:42.943Z,100046.80
2018-05-10T02:31:10.396Z,100048.22
2018-05-10T02:33:37.951Z,100061.00
2018-05-10T02:36:05.486Z,100056.48
2018-05-10T02:38:32.976Z,100048.70
2018-05-10T02:41:00.572Z,100043.93
2018-05-10T02:43:28.033Z,100048.93
2018-05-10T02:45:55.489Z,100048.69
2018-05-10T02:48:23.026Z,100044.48
2018-05-10T02:50:50.497Z,100042.03
2018-05-10T02:53:17.976Z,100046.34
2018-05-10T02:55:45.540Z,100044.13
2018-05-10T02:58:13.055Z,100044.13
2018-05-10T03:00:40.549Z,100049.92
2018-05-10T03:03:08.042Z,100040.49
2018-05-10T03:05:35.539Z,100041.42
2018-05-10T03:08:02.998Z,100043.36
2018-05-10T03:10:30.454Z,100037.25
2018-05-10T03:12:57.974Z,100043.42
2018-05-10T03:15:25.508Z,100042.46
2018-05-10T03:17:52.959Z,100036.58
2018-05-10T03:20:20.496Z,100038.23
2018-05-10T03:22:47.968Z,100035.52
2018-05-10T03:25:15.555Z,100031.84
2018-05-10T03:27:43.015Z,100030.20
2018-05-10T03:30:10.480Z,100034.52
2018-05-10T03:32:37.985Z,100033.58
2018-05-10T03:35:05.576Z,100032.70
2018-05-10T03:37:33.068Z,100032.83
2018-05-10T03:40:00.792Z,100034.73
2018-05-10T03:42:28.323Z,100032.51
2018-05-10T03:44:55.786Z,100036.66
2018-05-10T03:47:23.281Z,100027.54
2018-05-10T03:49:50.746Z,100021.69
2018-05-10T03:52:18.296Z,100018.06
2018-05-10T03:54:45.759Z,100023.42
2018-05-10T03:57:13.221Z,100017.98
2018-05-10T03:59:40.696Z,100020.84
2018-05-10T04:02:08.183Z,100024.46
2018-05-10T04:04:47.431Z,100025.92
2018-05-10T04:07:26.914Z,100022.66
2018-05-10T04:10:06.260Z,100021.93
2018-05-10T04:12:33.716Z,100016.86
2018-05-10T04:15:01.225Z,100023.50
2018-05-10T04:17:28.726Z,100018.61
2018-05-10T04:19:56.221Z,100022.88
2018-05-10T04:22:23.699Z,100025.88
2018-05-10T04:24:51.238Z,100025.38
2018-05-10T04:27:18.700Z,100024.25
2018-05-10T04:29:46.189Z,100029.86
2018-05-10T04:32:13.709Z,100028.05
2018-05-10T04:34:41.223Z,100032.94
2018-05-10T04:37:08.732Z,100026.81
2018-05-10T04:39:36.206Z,100028.56
2018-05-10T04:42:03.797Z,100035.41
2018-05-10T04:44:31.327Z,100031.53
2018-05-10T04:46:58.809Z,100031.34
2018-05-10T04:49:26.291Z,100029.24
2018-05-10T04:51:53.794Z,100036.22
2018-05-10T04:54:21.265Z,100035.54
2018-05-10T04:56:48.737Z,100034.84
2018-05-10T04:59:16.184Z,100039.21
2018-05-10T05:01:43.684Z,100032.07
2018-05-10T05:04:11.176Z,100032.11
2018-05-10T05:06:38.760Z,100036.84
2018-05-10T05:09:06.284Z,100047.23
2018-05-10T05:11:33.733Z,100055.38
2018-05-10T05:14:01.225Z,100053.17
2018-05-10T05:16:28.752Z,100040.06
2018-05-10T05:18:56.204Z,100047.77
2018-05-10T05:21:23.825Z,100045.39
2018-05-10T05:23:51.263Z,100049.63
2018-05-10T05:26:18.785Z,100047.20
2018-05-10T05:28:46.261Z,100053.66
2018-05-10T05:31:13.850Z,100057.30
2018-05-10T05:33:41.355Z,100054.78
2018-05-10T05:36:08.809Z,100060.45
2018-05-10T05:38:36.324Z,100061.27
2018-05-10T05:41:03.817Z,100059.23
2018-05-10T05:43:31.331Z,100065.81
2018-05-10T05:45:58.902Z,100069.12
2018-05-10T05:48:26.373Z,100070.18
2018-05-10T05:50:53.857Z,100062.82
2018-05-10T05:53:21.371Z,100063.79
2018-05-10T05:55:48.876Z,100069.97
2018-05-10T05:58:16.333Z,100068.77
2018-05-10T06:00:43.840Z,100073.57
2018-05-10T06:03:11.315Z,100068.54
2018-05-10T06:05:38.799Z,100069.74
2018-05-10T06:08:06.261Z,100080.67
2018-05-10T06:10:33.750Z,100078.61
2018-05-10T06:13:01.261Z,100089.01
2018-05-10T06:15:28.775Z,100081.62
2018-05-10T06:17:56.313Z,100088.84
2018-05-10T06:20:23.899Z,100090.34
2018-05-10T06:22:51.376Z,100089.13
2018-05-10T06:25:18.886Z,100095.06
2018-05-10T06:27:46.377Z,100094.22
2018-05-10T06:30:13.843Z,100096.19
2018-05-10T06:32:41.377Z,100091.50
2018-05-10T06:35:08.955Z,100087.69
2018-05-10T06:37:36.440Z,100089.44
2018-05-10T06:40:03.972Z,100094.32
2018-05-10T06:42:31.489Z,100092.32
2018-05-10T06:44:58.956Z,100097.07
2018-05-10T06:47:26.444Z,100093.92
2018-05-10T06:49:54.175Z,100099.86
2018-05-10T06:52:21.735Z,100103.36
2018-05-10T06:54:49.291Z,100103.19
2018-05-10T06:57:16.780Z,100104.95
2018-05-10T06:59:44.249Z,100106.40
2018-05-10T07:02:11.715Z,100110.37
2018-05-10T07:04:39.172Z,100107.48
2018-05-10T07:07:06.690Z,100115.45
2018-05-10T07:09:34.251Z,100113.34
2018-05-10T07:12:01.731Z,100116.25
2018-05-10T07:14:29.231Z,100111.45
2018-05-10T07:16:56.712Z,100114.80
2018-05-10T07:19:24.182Z,100114.66
2018-05-10T07:21:51.681Z,100118.33
2018-05-10T07:24:19.151Z,100115.59
2018-05-10T07:26:46.632Z,100121.17
2018-05-10T07:29:14.392Z,100117.46
2018-05-10T07:31:41.859Z,100113.33
2018-05-10T07:34:09.322Z,100109.23
2018-05-10T07:36:36.834Z,100118.08
2018-05-10T07:39:04.305Z,100117.41
2018-05-10T07:41:31.795Z,100117.12
2018-05-10T07:43:59.257Z,100114.59
2018-05-10T07:46:26.716Z,100112.02
2018-05-10T07:48:54.192Z,100112.34
2018-05-10T07:51:21.656Z,100116.48
2018-05-10T07:53:49.222Z,100111.66
2018-05-10T07:56:16.687Z,100113.62
2018-05-10T07:58:44.156Z,100113.99
2018-05-10T08:01:11.641Z,100111.29
2018-05-10T08:03:39.113Z,100112.66
2018-05-10T08:06:06.596Z,100114.84
2018-05-10T08:08:34.088Z,100117.91
2018-05-10T08:11:01.591Z,100114.20
2018-05-10T08:13:29.145Z,100114.68
2018-05-10T08:15:56.745Z,100113.00
2018-05-10T08:18:24.276Z,100116.64
2018-05-10T08:20:51.773Z,100116.78
2018-05-10T08:23:19.272Z,100112.29
2018-05-10T08:25:46.798Z,100114.23
2018-05-10T08:28:14.357Z,100107.23
2018-05-10T08:30:41.872Z,100109.45
2018-05-10T08:33:09.340Z,100105.80
2018-05-10T08:35:36.850Z,100111.60
2018-05-10T08:38:04.369Z,100106.72
2018-05-10T08:40:31.940Z,100107.73
2018-05-10T08:42:59.443Z,100107.51
2018-05-10T08:48:00.749Z,100115.80
2018-05-10T08:50:28.271Z,100106.23
2018-05-10T08:52:55.767Z,100109.58
2018-05-10T08:55:23.226Z,100110.38
2018-05-10T08:57:50.720Z,100112.62
2018-05-10T09:00:18.206Z,100119.52
2018-05-10T09:02:45.691Z,100122.30
2018-05-10T09:05:13.228Z,100119.79
2018-05-10T09:07:40.690Z,100120.62
2018-05-10T09:10:08.193Z,100113.34
2018-05-10T09:12:35.710Z,100123.96
2018-05-10T09:15:03.274Z,100123.37
2018-05-10T09:17:30.856Z,100123.45
2018-05-10T09:19:58.379Z,100118.02
2018-05-10T09:22:25.866Z,100115.31
2018-05-10T09:24:53.348Z,100113.55
2018-05-10T09:27:20.831Z,100113.69
2018-05-10T09:29:48.297Z,100113.80
2018-05-10T09:32:16.588Z,100113.18
2018-05-10T09:34:44.518Z,100108.42
2018-05-10T09:37:12.200Z,100115.44
2018-05-10T09:39:39.828Z,100114.33
2018-05-10T09:42:07.293Z,100116.33
2018-05-10T09:44:34.943Z,100110.70
2018-05-10T09:47:02.405Z,100119.20
2018-05-10T09:49:29.900Z,100118.04
2018-05-10T09:51:57.372Z,100113.52
2018-05-10T09:54:24.968Z,100119.89
2018-05-10T09:56:52.518Z,100120.19
2018-05-10T09:59:19.976Z,100118.75
2018-05-10T10:01:47.672Z,100119.23
2018-05-10T10:04:15.197Z,100127.25
2018-05-10T10:06:42.749Z,100126.27
2018-05-10T10:09:10.264Z,100121.83
2018-05-10T10:11:37.756Z,100125.23
2018-05-10T10:14:05.320Z,100125.80
2018-05-10T10:16:32.793Z,100125.88
2018-05-10T10:19:00.368Z,100125.70
2018-05-10T10:21:27.869Z,100119.73
2018-05-10T10:23:55.421Z,100117.59
2018-05-10T10:26:22.896Z,100114.49
2018-05-10T10:28:50.355Z,100122.43
2018-05-10T10:31:17.838Z,100114.59
2018-05-10T10:33:45.376Z,100116.55
2018-05-10T10:36:12.969Z,100120.62
2018-05-10T10:38:40.485Z,100123.31
2018-05-10T10:41:07.977Z,100121.84
2018-05-10T10:43:35.472Z,100117.63
2018-05-10T10:46:02.987Z,100116.77
2018-05-10T10:48:30.496Z,100117.07
2018-05-10T10:50:58.093Z,100114.10
2018-05-10T10:53:25.547Z,100123.55
2018-05-10T10:55:53.026Z,100118.06
2018-05-10T10:58:20.534Z,100116.34
2018-05-10T11:00:48.022Z,100113.20
2018-05-10T11:03:15.500Z,100117.98
2018-05-10T11:05:42.951Z,100115.93
2018-05-10T11:08:10.400Z,100121.13
2018-05-10T11:10:37.875Z,100116.22
2018-05-10T11:13:05.368Z,100114.38
2018-05-10T11:15:32.863Z,100115.20
2018-05-10T11:18:00.350Z,100112.48
2018-05-10T11:20:27.846Z,100118.67
2018-05-10T11:22:55.344Z,100118.14
2018-05-10T11:25:22.883Z,100115.62
2018-05-10T11:27:50.333Z,100121.59
2018-05-10T11:30:17.901Z,100125.69
2018-05-10T11:32:45.413Z,100118.97
2018-05-10T11:35:12.901Z,100114.00
2018-05-10T11:37:40.418Z,100116.55
2018-05-10T11:40:07.907Z,100120.00
2018-05-10T11:42:35.548Z,100118.84
2018-05-10T11:45:03.219Z,100119.03
2018-05-10T11:47:30.762Z,100117.89
2018-05-10T11:49:58.311Z,100123.23
2018-05-10T11:52:25.826Z,100131.67
2018-05-10T11:54:53.281Z,100116.04
2018-05-10T11:57:21.001Z,100117.66
2018-05-10T11:59:48.401Z,100118.55
2018-05-10T12:02:15.880Z,100122.43
2018-05-10T12:04:43.340Z,100122.09
2018-05-10T12:07:10.841Z,100117.80
2018-05-10T12:09:38.296Z,100121.63
2018-05-10T12:12:05.852Z,100116.16
2018-05-10T12:14:33.353Z,100109.49
2018-05-10T12:17:00.871Z,100112.42
2018-05-10T12:19:28.386Z,100118.26
2018-05-10T12:21:55.856Z,100114.00
2018-05-10T12:24:23.353Z,100114.96
2018-05-10T12:26:50.895Z,100112.23
2018-05-10T12:29:18.360Z,100109.95
2018-05-10T12:31:45.845Z,100108.37
2018-05-10T12:34:13.398Z,100108.34
2018-05-10T12:36:40.913Z,100109.23
2018-05-10T12:39:08.388Z,100109.48
2018-05-10T12:41:36.002Z,100116.20
2018-05-10T12:44:03.443Z,100112.95
2018-05-10T12:46:30.926Z,100116.20
2018-05-10T12:48:58.420Z,100108.73
2018-05-10T12:51:25.892Z,100103.16
2018-05-10T12:53:53.399Z,100107.37
2018-05-10T12:56:20.911Z,100107.61
2018-05-10T12:58:48.453Z,100102.81
2018-05-10T13:01:15.933Z,100100.95
2018-05-10T13:03:43.468Z,100098.53
2018-05-10T13:06:10.942Z,100104.43
2018-05-10T13:08:38.423Z,100095.31
2018-05-10T13:11:05.901Z,100108.55
2018-05-10T13:13:33.350Z,100110.16
2018-05-10T13:16:00.946Z,100103.39
2018-05-10T13:18:28.429Z,100098.54
2018-05-10T13:20:56.044Z,100093.20
2018-05-10T13:23:23.551Z,100091.06
2018-05-10T13:25:51.018Z,100087.55
2018-05-10T13:28:18.530Z,100086.50
2018-05-10T13:30:46.024Z,100084.63
2018-05-10T13:33:13.569Z,100085.91
2018-05-10T13:35:41.076Z,100085.11
2018-05-10T13:38:08.579Z,100079.28
2018-05-10T13:40:36.042Z,100081.44
2018-05-10T13:43:03.575Z,100082.09
2018-05-10T13:45:31.069Z,100086.25
2018-05-10T13:47:58.578Z,100086.86
2018-05-10T13:50:26.070Z,100091.34
2018-05-10T13:52:53.566Z,100095.22
2018-05-10T13:55:21.043Z,100091.83
2018-05-10T13:57:48.546Z,100091.15
2018-05-10T14:00:16.072Z,100101.41
2018-05-10T14:02:43.564Z,100097.63
2018-05-10T14:05:11.027Z,100100.04
2018-05-10T14:07:38.582Z,100099.05
2018-05-10T14:10:06.055Z,100101.13
2018-05-10T14:12:33.539Z,100104.36
2018-05-10T14:15:01.150Z,100104.48
2018-05-10T14:17:28.721Z,100103.44
2018-05-10T14:19:56.192Z,100105.03
2018-05-10T14:22:23.676Z,100098.16
2018-05-10T14:24:51.180Z,100102.09
2018-05-10T14:27:18.668Z,100103.39
2018-05-10T14:29:46.198Z,100100.07
2018-05-10T14:34:47.503Z,100104.48
2018-05-10T14:37:15.080Z,100101.78
2018-05-10T14:39:42.565Z,100109.58
2018-05-10T14:42:10.058Z,100109.48
2018-05-10T14:44:37.621Z,100109.98
2018-05-10T14:47:05.139Z,100107.41
2018-05-10T14:49:32.619Z,100102.20
2018-05-10T14:52:00.178Z,100109.79
2018-05-10T14:54:27.670Z,100107.03
2018-05-10T14:56:55.182Z,100109.90
2018-05-10T14:59:22.670Z,100108.17
2018-05-10T15:01:50.199Z,100113.48
2018-05-10T15:04:17.668Z,100114.53
2018-05-10T15:06:45.127Z,100111.47
2018-05-10T15:09:12.650Z,100120.06
2018-05-10T15:11:40.149Z,100115.39
2018-05-10T15:14:07.636Z,100115.70
2018-05-10T15:16:35.134Z,100109.73
2018-05-10T15:19:02.673Z,100119.19
2018-05-10T15:21:30.162Z,100112.22
2018-05-10T15:23:57.663Z,100120.38
2018-05-10T15:26:25.200Z,100106.08
2018-05-10T15:28:52.689Z,100110.53
2018-05-10T15:31:20.148Z,100100.86
2018-05-10T15:33:47.652Z,100102.92
2018-05-10T15:36:15.218Z,100109.70
2018-05-10T15:38:42.771Z,100113.44
2018-05-10T15:41:10.241Z,100119.66
2018-05-10T15:43:37.749Z,100119.59
2018-05-10T15:46:05.328Z,100125.29
2018-05-10T15:48:34.470Z,100121.72
2018-05-10T15:51:02.135Z,100122.69
2018-05-10T15:53:29.621Z,100125.39
2018-05-10T15:55:57.189Z,100136.41
2018-05-10T15:58:24.713Z,100142.41
2018-05-10T16:00:52.237Z,100138.30
2018-05-10T16:03:19.768Z,100146.05
2018-05-10T16:05:47.289Z,100152.56
2018-05-10T16:08:14.757Z,100147.36
2018-05-10T16:10:42.240Z,100149.73
2018-05-10T16:13:09.738Z,100152.41
2018-05-10T16:15:37.207Z,100151.36
2018-05-10T16:18:04.843Z,100149.88
2018-05-10T16:20:32.373Z,100150.80
2018-05-10T16:22:59.905Z,100154.33
2018-05-10T16:25:27.442Z,100163.83
2018-05-10T16:27:54.976Z,100162.38
2018-05-10T16:30:22.472Z,100175.22
2018-05-10T16:32:50.085Z,100184.78
2018-05-10T16:35:17.607Z,100180.73
2018-05-10T16:37:45.065Z,100191.36
2018-05-10T16:40:12.570Z,100192.19
2018-05-10T16:42:40.032Z,100191.79
2018-05-10T16:45:07.556Z,100191.45
2018-05-10T16:47:35.016Z,100194.44
2018-05-10T16:50:02.517Z,100180.91
2018-05-10T16:52:30.043Z,100178.70
2018-05-10T16:54:57.631Z,100184.58
2018-05-10T16:57:25.138Z,100191.78
2018-05-10T16:59:52.613Z,100190.75
2018-05-10T17:02:20.075Z,100192.94
2018-05-10T17:04:47.588Z,100200.42
2018-05-10T17:07:15.091Z,100213.26
2018-05-10T17:09:42.662Z,100214.30
2018-05-10T17:12:10.246Z,100217.79
2018-05-10T17:14:37.775Z,100241.05
2018-05-10T17:17:05.288Z,100260.85
2018-05-10T17:19:32.809Z,100260.36
2018-05-10T17:22:00.311Z,100258.91
2018-05-10T17:24:27.779Z,100284.03
2018-05-10T17:26:55.255Z,100280.97
2018-05-10T17:29:22.704Z,100282.91
2018-05-10T17:31:50.181Z,100268.14
2018-05-10T17:34:17.969Z,100253.48
2018-05-10T17:36:45.437Z,100236.54
2018-05-10T17:39:12.935Z,100233.59
2018-05-10T17:41:40.465Z,100234.66
2018-05-10T17:44:07.938Z,100235.52
2018-05-10T17:46:35.425Z,100242.82
2018-05-10T17:49:02.890Z,100262.21
2018-05-10T17:51:30.383Z,100266.27
2018-05-10T17:53:57.875Z,100294.34
2018-05-10T17:56:25.447Z,100321.66
2018-05-10T17:58:53.161Z,100318.17
2018-05-10T18:01:20.696Z,100329.46
2018-05-10T18:03:48.188Z,100361.52
2018-05-10T18:06:15.639Z,100376.75
2018-05-10T18:08:43.226Z,100383.33
2018-05-10T18:11:10.685Z,100387.39
2018-05-10T18:13:38.253Z,100399.30
2018-05-10T18:16:05.773Z,100413.22
2018-05-10T18:18:33.408Z,100420.52
2018-05-10T18:21:00.966Z,100438.28
2018-05-10T18:23:28.517Z,100462.27
2018-05-10T18:25:56.014Z,100492.73
2018-05-10T18:28:23.525Z,100502.79
2018-05-10T18:30:51.017Z,100508.80
2018-05-10T18:33:18.606Z,100513.91
2018-05-10T18:35:46.066Z,100523.54
2018-05-10T18:38:13.533Z,100520.16
2018-05-10T18:40:41.016Z,100512.32
2018-05-10T18:43:08.544Z,100505.22
2018-05-10T18:45:36.029Z,100492.75
2018-05-10T18:48:03.639Z,100488.51
2018-05-10T18:50:31.139Z,100487.52
2018-05-10T18:52:58.643Z,100494.59
2018-05-10T18:55:26.147Z,100501.41
2018-05-10T18:57:53.676Z,100497.02
2018-05-10T19:00:21.168Z,100493.03
2018-05-10T19:02:48.621Z,100499.31
2018-05-10T19:05:16.075Z,100510.10
2018-05-10T19:07:43.652Z,100521.70
2018-05-10T19:10:11.136Z,100533.69
2018-05-10T19:12:38.636Z,100540.50
2018-05-10T19:15:06.131Z,100546.72
2018-05-10T19:17:33.596Z,100539.86
2018-05-10T19:20:01.196Z,100544.86
2018-05-10T19:22:28.759Z,100537.07
2018-05-10T19:24:56.265Z,100535.18
2018-05-10T19:27:23.744Z,100527.94
2018-05-10T19:29:51.278Z,100519.34
2018-05-10T19:32:18.839Z,100514.13
2018-05-10T19:34:46.450Z,100516.46
2018-05-10T19:37:13.988Z,100526.45
2018-05-10T19:39:41.545Z,100543.56
2018-05-10T19:42:09.033Z,100550.58
2018-05-10T19:44:36.495Z,100551.24
2018-05-10T19:47:03.952Z,100547.69
2018-05-10T19:49:31.461Z,100561.69
2018-05-10T19:51:58.987Z,100572.07
2018-05-10T19:54:26.470Z,100583.32
2018-05-10T19:56:54.030Z,100593.48
2018-05-10T19:59:21.494Z,100598.41
2018-05-10T20:01:48.939Z,100602.26
2018-05-10T20:04:16.415Z,100603.84
2018-05-10T20:06:43.965Z,100607.95
2018-05-10T20:09:11.435Z,100604.25
2018-05-10T20:11:38.912Z,100604.43
2018-05-10T20:14:06.415Z,100606.91
2018-05-10T20:16:34.361Z,100615.42
2018-05-10T20:19:01.939Z,100619.28
2018-05-10T20:21:29.457Z,100621.18
2018-05-10T20:23:57.114Z,100620.15
2018-05-10T20:26:24.735Z,100622.05
2018-05-10T20:28:52.200Z,100627.55
2018-05-10T20:31:19.925Z,100623.99
2018-05-10T20:33:47.446Z,100621.41
2018-05-10T20:36:14.941Z,100615.47
2018-05-10T20:38:42.410Z,100620.92
2018-05-10T20:41:09.895Z,100621.23
2018-05-10T20:43:37.417Z,100626.97
2018-05-10T20:46:04.925Z,100632.97
2018-05-10T20:48:32.509Z,100644.94
2018-05-10T20:51:00.065Z,100645.62
2018-05-10T20:53:27.583Z,100638.24
2018-05-10T20:55:55.175Z,100649.73
2018-05-10T20:58:22.645Z,100647.94
2018-05-10T21:00:50.081Z,100650.70
2018-05-10T21:03:17.597Z,100653.05
2018-05-10T21:05:45.927Z,100648.39
2018-05-10T21:08:13.394Z,100653.95
2018-05-10T21:10:40.957Z,100662.18
2018-05-10T21:13:08.433Z,100669.53
2018-05-10T21:15:35.921Z,100668.84
2018-05-10T21:18:03.420Z,100678.48
2018-05-10T21:20:30.960Z,100676.57
2018-05-10T21:22:58.420Z,100672.48
2018-05-10T21:25:26.004Z,100672.62
2018-05-10T21:27:53.475Z,100679.88
2018-05-10T21:30:20.984Z,100680.59
2018-05-10T21:32:48.472Z,100682.11
2018-05-10T21:35:15.953Z,100680.72
2018-05-10T21:37:43.432Z,100682.79
2018-05-10T21:40:10.919Z,100684.17
2018-05-10T21:42:38.445Z,100680.75
2018-05-10T21:45:05.908Z,100690.64
2018-05-10T21:47:33.377Z,100688.86
2018-05-10T21:50:02.565Z,100700.34
2018-05-10T21:52:30.104Z,100703.23
2018-05-10T21:54:57.634Z,100699.55
2018-05-10T21:57:25.202Z,100705.86
2018-05-10T21:59:52.695Z,100699.69
2018-05-10T22:02:22.793Z,100705.59
2018-05-10T22:04:50.262Z,100707.67
2018-05-10T22:07:17.792Z,100710.39
2018-05-10T22:09:45.288Z,100712.88
2018-05-10T22:12:12.916Z,100704.37
2018-05-10T22:14:40.365Z,100706.14
2018-05-10T22:17:07.930Z,100713.14
2018-05-10T22:19:35.425Z,100720.80
2018-05-10T22:22:02.912Z,100718.06
2018-05-10T22:24:30.389Z,100720.66
2018-05-10T22:26:57.929Z,100714.36
2018-05-10T22:29:25.433Z,100709.14
2018-05-10T22:31:52.918Z,100675.70
2018-05-10T22:34:20.450Z,100707.58
2018-05-10T22:36:47.985Z,100706.91
2018-05-10T22:39:15.473Z,100705.95
2018-05-10T22:41:43.117Z,100703.62
2018-05-10T22:44:10.598Z,100711.02
2018-05-10T22:46:38.060Z,100712.80
2018-05-10T22:49:05.549Z,100713.20
2018-05-10T22:51:33.141Z,100711.28
2018-05-10T22:54:00.730Z,100712.34
2018-05-10T22:56:28.262Z,100717.01
2018-05-10T22:58:55.822Z,100720.04
2018-05-10T23:01:23.306Z,100720.13
2018-05-10T23:03:50.793Z,100723.80
2018-05-10T23:06:18.369Z,100722.83
2018-05-10T23:08:45.829Z,100722.38
2018-05-10T23:11:13.328Z,100729.08
2018-05-10T23:13:40.824Z,100727.42
2018-05-10T23:16:08.329Z,100722.34
2018-05-10T23:18:35.859Z,100733.56
2018-05-10T23:21:03.332Z,100727.12
2018-05-10T23:23:30.809Z,100746.92
2018-05-10T23:25:58.275Z,100744.77
2018-05-10T23:28:25.779Z,100749.11
2018-05-10T23:30:53.237Z,100751.57
2018-05-10T23:35:54.704Z,100759.16
2018-05-10T23:38:22.292Z,100759.67
2018-05-10T23:40:49.855Z,100771.16
2018-05-10T23:43:17.362Z,100765.69
2018-05-10T23:45:44.824Z,100780.04
2018-05-10T23:48:12.283Z,100779.75
2018-05-10T23:50:39.813Z,100782.30
2018-05-10T23:53:07.332Z,100780.92
2018-05-10T23:55:34.901Z,100775.44
2018-05-10T23:58:02.393Z,100776.89
